createdAt,value
2018-09-18T00:00:10.150Z,24.09
2018-09-18T00:02:38.929Z,24.08
2018-09-18T00:05:07.752Z,24.09
2018-09-18T00:07:36.503Z,24.10
2018-09-18T00:10:05.409Z,24.09
2018-09-18T00:12:34.190Z,24.09
2018-09-18T00:15:02.982Z,24.10
2018-09-18T00:17:31.778Z,24.09
2018-09-18T00:20:00.636Z,24.09
2018-09-18T00:22:29.393Z,24.09
2018-09-18T00:24:58.143Z,24.09
2018-09-18T00:27:26.891Z,24.09
2018-09-18T00:29:55.677Z,24.09
2018-09-18T00:32:24.422Z,24.09
2018-09-18T00:34:53.164Z,24.09
2018-09-18T00:37:22.137Z,24.10
2018-09-18T00:39:50.902Z,24.09
2018-09-18T00:42:19.792Z,24.09
2018-09-18T00:44:48.501Z,24.09
2018-09-18T00:47:17.251Z,24.09
2018-09-18T00:49:46.061Z,24.09
2018-09-18T00:52:14.870Z,24.08
2018-09-18T00:54:43.772Z,24.07
2018-09-18T00:57:12.534Z,24.08
2018-09-18T00:59:41.302Z,24.07
2018-09-18T01:02:10.081Z,24.07
2018-09-18T01:04:38.925Z,24.07
2018-09-18T01:07:07.947Z,24.06
2018-09-18T01:09:36.660Z,24.06
2018-09-18T01:12:05.532Z,24.06
2018-09-18T01:14:35.883Z,24.05
2018-09-18T01:17:05.361Z,24.05
2018-09-18T01:19:34.121Z,24.05
2018-09-18T01:22:02.958Z,24.04
2018-09-18T01:24:31.740Z,24.04
2018-09-18T01:27:00.512Z,24.04
2018-09-18T01:29:29.234Z,24.03
2018-09-18T01:31:58.073Z,24.03
2018-09-18T01:34:26.798Z,24.02
2018-09-18T01:36:55.580Z,24.02
2018-09-18T01:39:24.329Z,24.01
2018-09-18T01:41:53.106Z,24.01
2018-09-18T01:44:21.844Z,24.01
2018-09-18T01:46:50.589Z,24.01
2018-09-18T01:49:19.320Z,24.00
2018-09-18T01:51:48.087Z,24.00
2018-09-18T01:54:16.808Z,23.99
2018-09-18T01:56:45.665Z,24.00
2018-09-18T01:59:14.417Z,23.99
2018-09-18T02:01:43.169Z,24.00
2018-09-18T02:04:11.926Z,23.98
2018-09-18T02:06:40.720Z,23.98
2018-09-18T02:09:09.706Z,23.99
2018-09-18T02:11:38.465Z,23.99
2018-09-18T02:14:07.289Z,23.97
2018-09-18T02:16:36.041Z,23.98
2018-09-18T02:19:04.869Z,23.98
2018-09-18T02:21:33.664Z,23.98
2018-09-18T02:24:02.654Z,23.98
2018-09-18T02:26:31.429Z,23.98
2018-09-18T02:29:00.322Z,23.98
2018-09-18T02:31:29.079Z,23.98
2018-09-18T02:33:57.840Z,23.99
2018-09-18T02:36:26.572Z,23.98
2018-09-18T02:38:55.341Z,23.99
2018-09-18T02:41:24.157Z,23.99
2018-09-18T02:43:52.888Z,24.00
2018-09-18T02:46:21.677Z,24.00
2018-09-18T02:48:50.487Z,24.01
2018-09-18T02:51:19.192Z,24.01
2018-09-18T02:53:47.931Z,24.00
2018-09-18T02:56:16.672Z,24.01
2018-09-18T02:58:45.421Z,24.01
2018-09-18T03:01:14.189Z,24.00
2018-09-18T03:03:42.979Z,24.01
2018-09-18T03:06:11.816Z,24.00
2018-09-18T03:08:40.572Z,24.01
2018-09-18T03:11:09.332Z,24.00
2018-09-18T03:13:38.111Z,24.01
2018-09-18T03:16:06.965Z,24.01
2018-09-18T03:18:35.843Z,24.01
2018-09-18T03:21:04.669Z,24.01
2018-09-18T03:23:33.400Z,24.01
2018-09-18T03:26:02.177Z,24.01
2018-09-18T03:28:30.982Z,24.01
2018-09-18T03:30:59.810Z,24.00
2018-09-18T03:33:28.539Z,24.00
2018-09-18T03:35:57.322Z,24.00
2018-09-18T03:38:26.095Z,24.00
2018-09-18T03:40:54.915Z,24.00
2018-09-18T03:43:23.834Z,23.98
2018-09-18T03:45:52.624Z,23.98
2018-09-18T03:48:21.348Z,23.99
2018-09-18T03:50:50.130Z,23.98
2018-09-18T03:53:18.904Z,23.99
2018-09-18T03:55:47.632Z,23.98
2018-09-18T03:58:16.323Z,23.98
2018-09-18T04:00:45.092Z,23.98
2018-09-18T04:03:14.381Z,23.98
2018-09-18T04:05:43.155Z,23.98
2018-09-18T04:08:11.881Z,23.98
2018-09-18T04:10:40.649Z,23.98
2018-09-18T04:13:09.672Z,23.98
2018-09-18T04:15:38.465Z,23.98
2018-09-18T04:18:07.334Z,23.98
2018-09-18T04:20:36.121Z,23.99
2018-09-18T04:23:04.960Z,23.98
2018-09-18T04:25:33.855Z,23.98
2018-09-18T04:28:02.693Z,23.98
2018-09-18T04:30:31.461Z,23.98
2018-09-18T04:33:00.195Z,23.98
2018-09-18T04:35:28.963Z,23.98
2018-09-18T04:37:57.721Z,23.98
2018-09-18T04:40:26.593Z,23.98
2018-09-18T04:42:55.361Z,23.98
2018-09-18T04:45:25.248Z,23.97
2018-09-18T04:47:54.792Z,23.97
2018-09-18T04:50:23.610Z,23.97
2018-09-18T04:52:52.428Z,23.95
2018-09-18T05:00:16.605Z,23.96
2018-09-18T05:02:45.419Z,23.97
2018-09-18T05:05:14.255Z,23.98
2018-09-18T05:07:43.035Z,23.96
2018-09-18T05:10:11.786Z,23.98
2018-09-18T05:12:40.522Z,23.98
2018-09-18T05:15:09.322Z,23.98
2018-09-18T05:17:38.304Z,23.98
2018-09-18T05:20:07.084Z,23.98
2018-09-18T05:22:35.802Z,23.98
2018-09-18T05:25:04.762Z,23.99
2018-09-18T05:27:33.550Z,23.99
2018-09-18T05:30:02.292Z,23.98
2018-09-18T05:32:31.145Z,24.00
2018-09-18T05:34:59.894Z,24.00
2018-09-18T05:37:28.750Z,24.00
2018-09-18T05:39:57.509Z,24.00
2018-09-18T05:42:26.278Z,24.00
2018-09-18T05:44:55.131Z,24.02
2018-09-18T05:47:23.906Z,24.01
2018-09-18T05:49:52.740Z,24.02
2018-09-18T05:52:21.532Z,24.02
2018-09-18T05:54:50.316Z,24.01
2018-09-18T05:57:19.049Z,24.01
2018-09-18T05:59:47.897Z,24.02
2018-09-18T06:02:16.916Z,24.01
2018-09-18T06:04:45.611Z,24.01
2018-09-18T06:07:14.431Z,24.01
2018-09-18T06:09:43.185Z,24.02
2018-09-18T06:12:11.993Z,24.01
2018-09-18T06:14:41.071Z,24.01
2018-09-18T06:17:09.960Z,24.02
2018-09-18T06:19:38.773Z,24.01
2018-09-18T06:22:07.610Z,24.01
2018-09-18T06:24:36.395Z,24.03
2018-09-18T06:27:05.753Z,24.02
2018-09-18T06:29:34.557Z,24.03
2018-09-18T06:32:03.311Z,24.03
2018-09-18T06:34:32.087Z,24.02
2018-09-18T06:37:01.040Z,24.03
2018-09-18T06:39:29.815Z,24.04
2018-09-18T06:41:58.680Z,24.03
2018-09-18T06:44:27.505Z,24.05
2018-09-18T06:46:56.353Z,24.04
2018-09-18T06:49:25.105Z,24.05
2018-09-18T06:51:53.920Z,24.06
2018-09-18T06:54:22.739Z,24.05
2018-09-18T06:56:51.505Z,24.05
2018-09-18T06:59:20.277Z,24.06
2018-09-18T07:01:49.099Z,24.05
2018-09-18T07:04:17.902Z,24.06
2018-09-18T07:06:46.661Z,24.05
2018-09-18T07:09:15.432Z,24.05
2018-09-18T07:11:44.189Z,24.06
2018-09-18T07:14:12.954Z,24.05
2018-09-18T07:16:41.819Z,24.05
2018-09-18T07:19:10.681Z,24.05
2018-09-18T07:21:39.405Z,24.05
2018-09-18T07:24:08.200Z,24.05
2018-09-18T07:26:37.073Z,24.05
2018-09-18T07:29:05.821Z,24.05
2018-09-18T07:31:34.614Z,24.05
2018-09-18T07:34:03.707Z,24.06
2018-09-18T07:36:32.453Z,24.05
2018-09-18T07:39:01.209Z,24.04
2018-09-18T07:41:29.978Z,24.04
2018-09-18T07:43:58.817Z,24.05
2018-09-18T07:46:27.583Z,24.04
2018-09-18T07:49:00.514Z,24.04
2018-09-18T07:51:29.291Z,24.05
2018-09-18T07:53:58.408Z,24.05
2018-09-18T07:56:27.316Z,24.05
2018-09-18T07:58:56.171Z,24.05
2018-09-18T08:01:24.944Z,24.05
2018-09-18T08:03:53.719Z,24.04
2018-09-18T08:06:22.551Z,24.04
2018-09-18T08:08:51.341Z,24.06
2018-09-18T08:11:20.159Z,24.06
2018-09-18T08:13:49.001Z,24.05
2018-09-18T08:16:17.758Z,24.06
2018-09-18T08:18:46.568Z,24.04
2018-09-18T08:21:15.422Z,24.05
2018-09-18T08:23:44.156Z,24.04
2018-09-18T08:26:12.977Z,24.04
2018-09-18T08:28:41.875Z,24.04
2018-09-18T08:31:10.688Z,24.04
2018-09-18T08:33:39.493Z,24.03
2018-09-18T08:36:08.601Z,24.02
2018-09-18T08:38:37.334Z,24.02
2018-09-18T08:41:06.430Z,24.02
2018-09-18T08:43:35.168Z,24.01
2018-09-18T08:46:04.230Z,24.01
2018-09-18T08:48:33.123Z,24.01
2018-09-18T08:51:02.637Z,23.99
2018-09-18T08:53:32.165Z,23.98
2018-09-18T08:56:00.972Z,23.98
2018-09-18T08:58:29.756Z,23.98
2018-09-18T09:00:58.506Z,23.97
2018-09-18T09:03:27.308Z,23.98
2018-09-18T09:05:56.186Z,23.98
2018-09-18T09:08:25.026Z,23.97
2018-09-18T09:10:53.825Z,23.96
2018-09-18T09:18:17.943Z,23.94
2018-09-18T09:20:46.681Z,23.93
2018-09-18T09:23:15.331Z,23.93
2018-09-18T09:25:44.053Z,23.93
2018-09-18T09:28:12.845Z,23.92
2018-09-18T09:30:41.620Z,23.91
2018-09-18T09:33:10.356Z,23.91
2018-09-18T09:35:39.100Z,23.90
2018-09-18T09:38:07.810Z,23.90
2018-09-18T09:40:36.587Z,23.89
2018-09-18T09:43:05.416Z,23.89
2018-09-18T09:45:34.152Z,23.89
2018-09-18T09:48:03.078Z,23.90
2018-09-18T09:50:31.819Z,23.90
2018-09-18T09:53:00.554Z,23.89
2018-09-18T09:55:29.318Z,23.90
2018-09-18T09:57:58.075Z,23.91
2018-09-18T10:00:31.948Z,23.91
2018-09-18T10:03:00.774Z,23.92
2018-09-18T10:05:29.479Z,23.91
2018-09-18T10:07:58.253Z,23.92
2018-09-18T10:10:30.958Z,23.93
2018-09-18T10:12:59.714Z,23.93
2018-09-18T10:15:28.484Z,23.93
2018-09-18T10:17:57.399Z,23.93
2018-09-18T10:20:26.017Z,23.93
2018-09-18T10:22:54.801Z,23.92
2018-09-18T10:25:23.536Z,23.94
2018-09-18T10:27:52.320Z,23.94
2018-09-18T10:30:21.090Z,23.93
2018-09-18T10:32:49.818Z,23.93
2018-09-18T10:35:18.590Z,23.93
2018-09-18T10:37:47.363Z,23.93
2018-09-18T10:40:16.081Z,23.93
2018-09-18T10:42:44.852Z,23.94
2018-09-18T10:45:13.577Z,23.93
2018-09-18T10:47:42.338Z,23.94
2018-09-18T10:50:11.050Z,23.93
2018-09-18T10:52:39.842Z,23.92
2018-09-18T10:55:08.602Z,23.92
2018-09-18T10:57:37.337Z,23.93
2018-09-18T11:00:07.357Z,23.93
2018-09-18T11:02:36.059Z,23.93
2018-09-18T11:05:04.868Z,23.92
2018-09-18T11:07:33.711Z,23.92
2018-09-18T11:10:02.767Z,23.92
2018-09-18T11:12:31.479Z,23.91
2018-09-18T11:15:00.239Z,23.91
2018-09-18T11:17:28.877Z,23.90
2018-09-18T11:19:57.598Z,23.89
2018-09-18T11:22:26.440Z,23.89
2018-09-18T11:24:55.076Z,23.90
2018-09-18T11:27:23.835Z,23.89
2018-09-18T11:29:53.226Z,23.88
2018-09-18T11:32:21.962Z,23.88
2018-09-18T11:34:50.709Z,23.88
2018-09-18T11:37:19.396Z,23.88
2018-09-18T11:39:48.130Z,23.87
2018-09-18T11:42:16.866Z,23.87
2018-09-18T11:44:45.569Z,23.87
2018-09-18T11:47:14.263Z,23.86
2018-09-18T11:49:42.951Z,23.86
2018-09-18T11:52:11.686Z,23.85
2018-09-18T11:54:40.467Z,23.85
2018-09-18T11:57:09.279Z,23.84
2018-09-18T11:59:37.996Z,23.85
2018-09-18T12:02:06.767Z,23.84
2018-09-18T12:04:35.567Z,23.83
2018-09-18T12:07:04.391Z,23.84
2018-09-18T12:09:33.107Z,23.84
2018-09-18T12:12:01.840Z,23.83
2018-09-18T12:14:31.429Z,23.83
2018-09-18T12:17:00.224Z,23.83
2018-09-18T12:19:28.960Z,23.83
2018-09-18T12:21:57.714Z,23.82
2018-09-18T12:24:26.607Z,23.82
2018-09-18T12:26:55.329Z,23.84
2018-09-18T12:29:24.099Z,23.83
2018-09-18T12:31:52.836Z,23.82
2018-09-18T12:34:21.682Z,23.82
2018-09-18T12:36:50.430Z,23.82
2018-09-18T12:39:19.157Z,23.82
2018-09-18T12:41:47.917Z,23.83
2018-09-18T12:44:16.632Z,23.83
2018-09-18T12:46:45.395Z,23.82
2018-09-18T12:49:14.162Z,23.82
2018-09-18T12:51:42.878Z,23.82
2018-09-18T12:54:11.783Z,23.83
2018-09-18T12:56:40.517Z,23.83
2018-09-18T12:59:09.254Z,23.82
2018-09-18T13:01:37.982Z,23.83
2018-09-18T13:04:06.755Z,23.83
2018-09-18T13:06:35.605Z,23.83
2018-09-18T13:09:06.459Z,23.83
2018-09-18T13:11:35.250Z,23.83
2018-09-18T13:14:04.139Z,23.82
2018-09-18T13:16:32.760Z,23.83
2018-09-18T13:19:01.545Z,23.83
2018-09-18T13:21:30.349Z,23.83
2018-09-18T13:23:59.294Z,23.83
2018-09-18T13:26:28.060Z,23.82
2018-09-18T13:28:56.877Z,23.82
2018-09-18T13:31:25.714Z,23.82
2018-09-18T13:33:54.438Z,23.82
2018-09-18T13:36:23.243Z,23.80
2018-09-18T13:38:51.967Z,23.81
2018-09-18T13:41:20.850Z,23.79
2018-09-18T13:43:49.522Z,23.80
2018-09-18T13:46:18.286Z,23.80
2018-09-18T13:48:47.125Z,23.80
2018-09-18T13:51:15.929Z,23.79
2018-09-18T13:53:44.767Z,23.78
2018-09-18T13:56:13.568Z,23.79
2018-09-18T13:58:42.326Z,23.79
2018-09-18T14:01:12.103Z,23.78
2018-09-18T14:03:40.812Z,23.78
2018-09-18T14:06:09.596Z,23.78
2018-09-18T14:08:38.477Z,23.78
2018-09-18T14:11:07.195Z,23.77
2018-09-18T14:13:35.942Z,23.77
2018-09-18T14:16:04.842Z,23.76
2018-09-18T14:18:33.535Z,23.77
2018-09-18T14:21:02.642Z,23.75
2018-09-18T14:23:31.419Z,23.75
2018-09-18T14:26:00.130Z,23.74
2018-09-18T14:28:29.651Z,23.74
2018-09-18T14:30:58.418Z,23.75
2018-09-18T14:33:27.219Z,23.74
2018-09-18T14:35:56.022Z,23.73
2018-09-18T14:38:24.810Z,23.73
2018-09-18T14:40:53.497Z,23.74
2018-09-18T14:43:22.256Z,23.74
2018-09-18T14:45:51.031Z,23.74
2018-09-18T14:48:19.795Z,23.74
2018-09-18T14:50:48.563Z,23.75
2018-09-18T14:53:17.330Z,23.74
2018-09-18T14:55:46.035Z,23.76
2018-09-18T14:58:14.844Z,23.76
2018-09-18T15:00:43.582Z,23.76
2018-09-18T15:03:12.401Z,23.77
2018-09-18T15:05:41.157Z,23.77
2018-09-18T15:08:09.943Z,23.78
2018-09-18T15:10:38.685Z,23.78
2018-09-18T15:13:07.453Z,23.78
2018-09-18T15:15:36.280Z,23.78
2018-09-18T15:18:05.357Z,23.78
2018-09-18T15:20:34.131Z,23.78
2018-09-18T15:23:02.972Z,23.80
2018-09-18T15:25:31.709Z,23.79
2018-09-18T15:28:00.559Z,23.79
2018-09-18T15:30:29.332Z,23.79
2018-09-18T15:32:58.090Z,23.80
2018-09-18T15:35:26.824Z,23.79
2018-09-18T15:37:55.584Z,23.79
2018-09-18T15:40:24.363Z,23.79
2018-09-18T15:42:53.170Z,23.79
2018-09-18T15:45:21.983Z,23.77
2018-09-18T15:47:50.801Z,23.78
2018-09-18T15:50:19.561Z,23.78
2018-09-18T15:52:48.261Z,23.79
2018-09-18T15:55:17.093Z,23.77
2018-09-18T15:57:45.949Z,23.76
2018-09-18T16:00:14.701Z,23.77
2018-09-18T16:02:43.487Z,23.76
2018-09-18T16:05:12.233Z,23.75
2018-09-18T16:07:40.958Z,23.76
2018-09-18T16:10:09.733Z,23.76
2018-09-18T16:12:38.492Z,23.75
2018-09-18T16:15:07.367Z,23.74
2018-09-18T16:17:36.765Z,23.73
2018-09-18T16:20:06.256Z,23.73
2018-09-18T16:22:34.987Z,23.72
2018-09-18T16:25:03.798Z,23.72
2018-09-18T16:27:32.592Z,23.71
2018-09-18T16:30:01.416Z,23.71
2018-09-18T16:32:30.199Z,23.70
2018-09-18T16:34:59.800Z,23.70
2018-09-18T16:37:28.539Z,23.69
2018-09-18T16:39:57.300Z,23.70
2018-09-18T16:42:26.100Z,23.68
2018-09-18T16:44:54.876Z,23.68
2018-09-18T16:47:23.738Z,23.68
2018-09-18T16:49:52.499Z,23.67
2018-09-18T16:52:21.415Z,23.67
2018-09-18T16:54:50.293Z,23.67
2018-09-18T16:57:18.991Z,23.66
2018-09-18T16:59:47.723Z,23.65
2018-09-18T17:02:16.505Z,23.63
2018-09-18T17:04:45.268Z,23.65
2018-09-18T17:07:14.069Z,23.64
2018-09-18T17:09:42.832Z,23.64
2018-09-18T17:12:11.587Z,23.63
2018-09-18T17:14:40.355Z,23.64
2018-09-18T17:17:09.255Z,23.64
2018-09-18T17:19:38.061Z,23.64
2018-09-18T17:22:06.878Z,23.65
2018-09-18T17:24:35.679Z,23.65
2018-09-18T17:27:04.395Z,23.64
2018-09-18T17:29:33.194Z,23.65
2018-09-18T17:32:01.906Z,23.66
2018-09-18T17:34:30.750Z,23.65
2018-09-18T17:36:59.446Z,23.65
2018-09-18T17:39:28.249Z,23.64
2018-09-18T17:41:56.986Z,23.65
2018-09-18T17:44:25.759Z,23.65
2018-09-18T17:46:54.532Z,23.65
2018-09-18T17:49:23.337Z,23.65
2018-09-18T17:51:52.464Z,23.64
2018-09-18T17:54:21.231Z,23.64
2018-09-18T17:56:50.035Z,23.64
2018-09-18T17:59:18.809Z,23.64
2018-09-18T18:01:47.556Z,23.64
2018-09-18T18:04:16.328Z,23.65
2018-09-18T18:06:45.288Z,23.64
2018-09-18T18:09:14.183Z,23.65
2018-09-18T18:11:43.259Z,23.64
2018-09-18T18:14:12.085Z,23.63
2018-09-18T18:16:40.850Z,23.62
2018-09-18T18:19:09.606Z,23.62
2018-09-18T18:21:38.392Z,23.62
2018-09-18T18:24:07.199Z,23.61
2018-09-18T18:26:36.068Z,23.62
2018-09-18T18:29:05.440Z,23.61
2018-09-18T18:31:34.172Z,23.60
2018-09-18T18:34:03.084Z,23.59
2018-09-18T18:36:31.864Z,23.59
2018-09-18T18:39:00.839Z,23.60
2018-09-18T18:41:30.058Z,23.59
2018-09-18T18:43:58.787Z,23.58
2018-09-18T18:46:27.592Z,23.59
2018-09-18T18:48:56.377Z,23.57
2018-09-18T18:51:25.129Z,23.56
2018-09-18T18:53:53.900Z,23.57
2018-09-18T18:56:22.764Z,23.57
2018-09-18T18:58:51.665Z,23.55
2018-09-18T19:01:20.451Z,23.55
2018-09-18T19:03:49.222Z,23.55
2018-09-18T19:06:18.448Z,23.53
2018-09-18T19:08:47.263Z,23.54
2018-09-18T19:11:16.142Z,23.54
2018-09-18T19:13:44.907Z,23.53
2018-09-18T19:16:13.682Z,23.52
2018-09-18T19:18:42.708Z,23.51
2018-09-18T19:21:11.449Z,23.52
2018-09-18T19:23:40.301Z,23.52
2018-09-18T19:26:09.130Z,23.51
2018-09-18T19:28:37.892Z,23.51
2018-09-18T19:31:06.657Z,23.50
2018-09-18T19:33:35.492Z,23.50
2018-09-18T19:36:04.612Z,23.50
2018-09-18T19:38:33.443Z,23.49
2018-09-18T19:41:02.213Z,23.50
2018-09-18T19:43:31.111Z,23.50
2018-09-18T19:46:00.013Z,23.50
2018-09-18T19:48:28.875Z,23.50
2018-09-18T19:50:57.645Z,23.50
2018-09-18T19:53:26.616Z,23.50
2018-09-18T19:55:55.355Z,23.50
2018-09-18T19:58:24.226Z,23.50
2018-09-18T20:00:53.032Z,23.51
2018-09-18T20:03:21.873Z,23.51
2018-09-18T20:05:50.697Z,23.50
2018-09-18T20:08:19.460Z,23.51
2018-09-18T20:10:48.248Z,23.52
2018-09-18T20:13:17.076Z,23.51
2018-09-18T20:15:45.915Z,23.51
2018-09-18T20:18:14.703Z,23.51
2018-09-18T20:20:43.430Z,23.51
2018-09-18T20:23:12.332Z,23.52
2018-09-18T20:25:41.086Z,23.51
2018-09-18T20:28:09.967Z,23.52
2018-09-18T20:30:38.792Z,23.52
2018-09-18T20:33:07.726Z,23.52
2018-09-18T20:35:36.547Z,23.52
2018-09-18T20:38:05.413Z,23.52
2018-09-18T20:40:34.256Z,23.52
2018-09-18T20:43:03.097Z,23.52
2018-09-18T20:45:31.902Z,23.51
2018-09-18T20:48:00.733Z,23.51
2018-09-18T20:50:29.482Z,23.52
2018-09-18T20:52:58.255Z,23.51
2018-09-18T20:55:27.067Z,23.51
2018-09-18T20:57:55.898Z,23.50
2018-09-18T21:00:24.808Z,23.50
2018-09-18T21:02:53.662Z,23.49
2018-09-18T21:05:22.518Z,23.48
2018-09-18T21:07:51.419Z,23.48
2018-09-18T21:10:20.225Z,23.49
2018-09-18T21:12:49.061Z,23.47
2018-09-18T21:15:17.907Z,23.48
2018-09-18T21:17:46.744Z,23.47
2018-09-18T21:20:15.595Z,23.46
2018-09-18T21:22:44.421Z,23.47
2018-09-18T21:25:21.311Z,23.46
2018-09-18T21:27:50.163Z,23.45
2018-09-18T21:30:19.009Z,23.45
2018-09-18T21:32:47.822Z,23.44
2018-09-18T21:35:16.608Z,23.44
2018-09-18T21:37:45.369Z,23.43
2018-09-18T21:40:14.163Z,23.44
2018-09-18T21:42:42.919Z,23.44
2018-09-18T21:45:11.667Z,23.44
2018-09-18T21:47:40.517Z,23.44
2018-09-18T21:50:09.462Z,23.43
2018-09-18T21:52:38.294Z,23.42
2018-09-18T21:55:07.083Z,23.43
2018-09-18T21:57:35.880Z,23.42
2018-09-18T22:00:05.629Z,23.43
2018-09-18T22:02:34.428Z,23.43
2018-09-18T22:05:03.316Z,23.43
2018-09-18T22:07:32.102Z,23.42
2018-09-18T22:10:00.954Z,23.43
2018-09-18T22:12:29.823Z,23.43
2018-09-18T22:14:58.631Z,23.43
2018-09-18T22:17:27.461Z,23.43
2018-09-18T22:19:56.258Z,23.43
2018-09-18T22:22:25.126Z,23.44
2018-09-18T22:24:53.915Z,23.43
2018-09-18T22:27:22.731Z,23.44
2018-09-18T22:29:51.564Z,23.44
2018-09-18T22:32:20.328Z,23.44
2018-09-18T22:34:49.204Z,23.44
2018-09-18T22:37:17.941Z,23.43
2018-09-18T22:39:46.701Z,23.44
2018-09-18T22:42:15.475Z,23.44
2018-09-18T22:44:44.322Z,23.43
2018-09-18T22:47:13.141Z,23.44
2018-09-18T22:49:41.893Z,23.44
2018-09-18T22:52:10.678Z,23.45
2018-09-18T22:54:39.496Z,23.45
2018-09-18T22:57:08.533Z,23.44
2018-09-18T22:59:37.272Z,23.44
2018-09-18T23:02:06.126Z,23.44
2018-09-18T23:04:34.917Z,23.45
2018-09-18T23:07:03.773Z,23.44
2018-09-18T23:09:32.536Z,23.44
2018-09-18T23:12:01.314Z,23.41
2018-09-18T23:14:30.118Z,23.43
2018-09-18T23:16:58.926Z,23.43
2018-09-18T23:19:27.944Z,23.43
2018-09-18T23:21:56.746Z,23.42
2018-09-18T23:24:25.460Z,23.43
2018-09-18T23:26:54.238Z,23.41
2018-09-18T23:29:23.055Z,23.42
2018-09-18T23:31:51.837Z,23.41
2018-09-18T23:34:20.566Z,23.41
2018-09-18T23:36:49.397Z,23.40
2018-09-18T23:39:18.167Z,23.40
2018-09-18T23:41:46.951Z,23.40
2018-09-18T23:44:15.753Z,23.39
2018-09-18T23:46:44.533Z,23.39
2018-09-18T23:49:13.255Z,23.39
2018-09-18T23:51:42.014Z,23.38
2018-09-18T23:54:10.809Z,23.38
2018-09-18T23:56:39.614Z,23.39
2018-09-18T23:59:08.443Z,23.38
